sensor_id;sensor_type;location;lat;lon;timestamp;temperature;humidity
62259;DHT22;48241;48.824;10.102;2023-02-21T00:01:58;7.10;84.60
62259;DHT22;48241;48.824;10.102;2023-02-21T00:04:42;7.20;85.20
62259;DHT22;48241;48.824;10.102;2023-02-21T00:07:28;6.60;88.90
62259;DHT22;48241;48.824;10.102;2023-02-21T00:10:14;6.60;89.50
62259;DHT22;48241;48.824;10.102;2023-02-21T00:12:59;6.90;87.40
62259;DHT22;48241;48.824;10.102;2023-02-21T00:15:43;7.30;85.00
62259;DHT22;48241;48.824;10.102;2023-02-21T00:18:27;7.30;84.30
62259;DHT22;48241;48.824;10.102;2023-02-21T00:21:11;7.20;86.70
62259;DHT22;48241;48.824;10.102;2023-02-21T00:23:55;7.20;86.70
62259;DHT22;48241;48.824;10.102;2023-02-21T00:26:39;7.30;85.40
62259;DHT22;48241;48.824;10.102;2023-02-21T00:29:23;7.50;84.40
62259;DHT22;48241;48.824;10.102;2023-02-21T00:32:07;7.00;87.80
62259;DHT22;48241;48.824;10.102;2023-02-21T00:34:51;7.40;86.40
62259;DHT22;48241;48.824;10.102;2023-02-21T00:37:36;7.50;85.50
62259;DHT22;48241;48.824;10.102;2023-02-21T00:40:20;7.30;86.50
62259;DHT22;48241;48.824;10.102;2023-02-21T00:43:04;7.40;86.40
62259;DHT22;48241;48.824;10.102;2023-02-21T00:45:48;7.20;88.80
62259;DHT22;48241;48.824;10.102;2023-02-21T00:48:32;7.10;88.90
62259;DHT22;48241;48.824;10.102;2023-02-21T00:51:16;7.30;87.40
62259;DHT22;48241;48.824;10.102;2023-02-21T00:54:00;7.50;86.20
62259;DHT22;48241;48.824;10.102;2023-02-21T00:56:44;7.70;85.70
62259;DHT22;48241;48.824;10.102;2023-02-21T00:59:29;7.60;86.10
62259;DHT22;48241;48.824;10.102;2023-02-21T01:02:13;7.70;85.00
62259;DHT22;48241;48.824;10.102;2023-02-21T01:04:57;7.70;84.90
62259;DHT22;48241;48.824;10.102;2023-02-21T01:07:41;7.90;83.60
62259;DHT22;48241;48.824;10.102;2023-02-21T01:10:25;8.00;83.30
62259;DHT22;48241;48.824;10.102;2023-02-21T01:13:09;7.70;85.00
62259;DHT22;48241;48.824;10.102;2023-02-21T01:15:54;7.70;84.90
62259;DHT22;48241;48.824;10.102;2023-02-21T01:18:38;7.80;84.90
62259;DHT22;48241;48.824;10.102;2023-02-21T01:21:22;7.50;86.60
62259;DHT22;48241;48.824;10.102;2023-02-21T01:24:08;7.40;86.90
62259;DHT22;48241;48.824;10.102;2023-02-21T01:26:52;7.50;85.70
62259;DHT22;48241;48.824;10.102;2023-02-21T01:29:36;7.40;86.40
62259;DHT22;48241;48.824;10.102;2023-02-21T01:32:21;7.00;88.60
62259;DHT22;48241;48.824;10.102;2023-02-21T01:35:05;7.10;88.70
62259;DHT22;48241;48.824;10.102;2023-02-21T01:37:49;6.80;90.10
62259;DHT22;48241;48.824;10.102;2023-02-21T01:40:33;6.80;90.20
62259;DHT22;48241;48.824;10.102;2023-02-21T01:43:22;7.00;88.70
62259;DHT22;48241;48.824;10.102;2023-02-21T01:46:11;7.20;86.60
62259;DHT22;48241;48.824;10.102;2023-02-21T01:48:58;7.30;86.10
62259;DHT22;48241;48.824;10.102;2023-02-21T01:51:43;7.50;85.00
62259;DHT22;48241;48.824;10.102;2023-02-21T01:54:41;7.30;84.80
62259;DHT22;48241;48.824;10.102;2023-02-21T01:57:26;7.40;85.60
62259;DHT22;48241;48.824;10.102;2023-02-21T02:00:12;7.40;85.00
62259;DHT22;48241;48.824;10.102;2023-02-21T02:03:00;7.30;85.20
62259;DHT22;48241;48.824;10.102;2023-02-21T02:05:51;7.30;85.90
62259;DHT22;48241;48.824;10.102;2023-02-21T02:08:37;7.30;84.70
62259;DHT22;48241;48.824;10.102;2023-02-21T02:17:06;7.10;87.30
62259;DHT22;48241;48.824;10.102;2023-02-21T02:22:37;6.80;87.80
62259;DHT22;48241;48.824;10.102;2023-02-21T02:28:08;6.80;88.20
62259;DHT22;48241;48.824;10.102;2023-02-21T02:36:52;7.20;85.20
62259;DHT22;48241;48.824;10.102;2023-02-21T02:39:23;7.20;84.60
62259;DHT22;48241;48.824;10.102;2023-02-21T02:44:37;7.50;82.50
62259;DHT22;48241;48.824;10.102;2023-02-21T02:47:04;7.60;81.10
62259;DHT22;48241;48.824;10.102;2023-02-21T02:49:33;7.60;80.30
62259;DHT22;48241;48.824;10.102;2023-02-21T02:52:04;7.60;80.50
62259;DHT22;48241;48.824;10.102;2023-02-21T02:54:30;7.40;82.10
62259;DHT22;48241;48.824;10.102;2023-02-21T02:56:55;7.50;81.10
62259;DHT22;48241;48.824;10.102;2023-02-21T02:59:25;7.50;81.10
62259;DHT22;48241;48.824;10.102;2023-02-21T03:01:58;7.30;81.10
62259;DHT22;48241;48.824;10.102;2023-02-21T03:07:53;7.00;83.20
62259;DHT22;48241;48.824;10.102;2023-02-21T03:13:17;7.20;81.60
62259;DHT22;48241;48.824;10.102;2023-02-21T03:16:01;7.10;81.40
62259;DHT22;48241;48.824;10.102;2023-02-21T03:18:48;7.40;80.80
62259;DHT22;48241;48.824;10.102;2023-02-21T03:21:28;7.50;80.90
62259;DHT22;48241;48.824;10.102;2023-02-21T03:23:57;7.40;81.30
62259;DHT22;48241;48.824;10.102;2023-02-21T03:26:26;7.40;81.30
62259;DHT22;48241;48.824;10.102;2023-02-21T03:28:54;7.40;81.00
62259;DHT22;48241;48.824;10.102;2023-02-21T03:31:25;7.20;83.20
62259;DHT22;48241;48.824;10.102;2023-02-21T03:33:52;7.20;82.00
62259;DHT22;48241;48.824;10.102;2023-02-21T03:36:19;7.10;82.00
62259;DHT22;48241;48.824;10.102;2023-02-21T03:38:44;6.80;83.40
62259;DHT22;48241;48.824;10.102;2023-02-21T03:41:10;6.80;84.60
62259;DHT22;48241;48.824;10.102;2023-02-21T03:43:36;6.80;84.80
62259;DHT22;48241;48.824;10.102;2023-02-21T03:46:02;6.70;83.80
62259;DHT22;48241;48.824;10.102;2023-02-21T03:48:28;6.60;84.30
62259;DHT22;48241;48.824;10.102;2023-02-21T03:50:53;6.20;87.20
62259;DHT22;48241;48.824;10.102;2023-02-21T03:53:19;6.30;87.50
62259;DHT22;48241;48.824;10.102;2023-02-21T03:55:44;6.10;88.20
62259;DHT22;48241;48.824;10.102;2023-02-21T03:58:10;6.00;89.20
62259;DHT22;48241;48.824;10.102;2023-02-21T04:00:35;6.10;87.20
62259;DHT22;48241;48.824;10.102;2023-02-21T04:03:01;6.40;85.70
62259;DHT22;48241;48.824;10.102;2023-02-21T04:05:26;6.40;85.00
62259;DHT22;48241;48.824;10.102;2023-02-21T04:07:52;6.50;84.80
62259;DHT22;48241;48.824;10.102;2023-02-21T04:10:17;6.60;84.10
62259;DHT22;48241;48.824;10.102;2023-02-21T04:12:43;6.30;84.60
62259;DHT22;48241;48.824;10.102;2023-02-21T04:15:10;6.40;84.70
62259;DHT22;48241;48.824;10.102;2023-02-21T04:17:35;6.50;84.30
62259;DHT22;48241;48.824;10.102;2023-02-21T04:20:01;6.50;84.70
62259;DHT22;48241;48.824;10.102;2023-02-21T04:22:27;6.30;85.90
62259;DHT22;48241;48.824;10.102;2023-02-21T04:24:52;6.00;86.40
62259;DHT22;48241;48.824;10.102;2023-02-21T04:27:18;5.60;88.40
62259;DHT22;48241;48.824;10.102;2023-02-21T04:29:43;5.90;86.80
62259;DHT22;48241;48.824;10.102;2023-02-21T04:32:10;6.00;85.80
62259;DHT22;48241;48.824;10.102;2023-02-21T04:34:35;6.20;85.50
62259;DHT22;48241;48.824;10.102;2023-02-21T04:37:01;6.00;86.90
62259;DHT22;48241;48.824;10.102;2023-02-21T04:39:26;6.10;87.60
62259;DHT22;48241;48.824;10.102;2023-02-21T04:41:52;6.00;87.30
62259;DHT22;48241;48.824;10.102;2023-02-21T04:44:17;5.70;87.90
62259;DHT22;48241;48.824;10.102;2023-02-21T04:46:43;5.60;89.50
62259;DHT22;48241;48.824;10.102;2023-02-21T04:49:12;5.90;88.60
62259;DHT22;48241;48.824;10.102;2023-02-21T04:51:37;6.00;87.90
62259;DHT22;48241;48.824;10.102;2023-02-21T04:54:03;6.10;87.20
62259;DHT22;48241;48.824;10.102;2023-02-21T04:56:29;5.80;88.60
62259;DHT22;48241;48.824;10.102;2023-02-21T04:58:55;6.00;87.00
62259;DHT22;48241;48.824;10.102;2023-02-21T05:01:21;6.10;85.70
62259;DHT22;48241;48.824;10.102;2023-02-21T05:03:48;6.20;86.20
62259;DHT22;48241;48.824;10.102;2023-02-21T05:06:21;6.30;85.40
62259;DHT22;48241;48.824;10.102;2023-02-21T05:08:47;6.40;84.90
62259;DHT22;48241;48.824;10.102;2023-02-21T05:11:13;6.30;85.20
62259;DHT22;48241;48.824;10.102;2023-02-21T05:13:39;5.90;89.00
62259;DHT22;48241;48.824;10.102;2023-02-21T05:16:05;6.10;87.70
62259;DHT22;48241;48.824;10.102;2023-02-21T05:18:30;6.20;85.50
62259;DHT22;48241;48.824;10.102;2023-02-21T05:20:59;6.20;85.40
62259;DHT22;48241;48.824;10.102;2023-02-21T05:23:24;6.00;89.70
62259;DHT22;48241;48.824;10.102;2023-02-21T05:26:11;6.20;88.70
62259;DHT22;48241;48.824;10.102;2023-02-21T05:28:37;6.30;86.00
62259;DHT22;48241;48.824;10.102;2023-02-21T05:31:04;6.20;85.00
62259;DHT22;48241;48.824;10.102;2023-02-21T05:33:29;6.30;85.20
62259;DHT22;48241;48.824;10.102;2023-02-21T05:35:55;6.20;85.10
62259;DHT22;48241;48.824;10.102;2023-02-21T05:38:22;6.20;86.90
62259;DHT22;48241;48.824;10.102;2023-02-21T05:40:48;6.20;87.00
62259;DHT22;48241;48.824;10.102;2023-02-21T05:43:13;6.20;87.80
62259;DHT22;48241;48.824;10.102;2023-02-21T05:45:40;6.20;87.90
62259;DHT22;48241;48.824;10.102;2023-02-21T05:48:05;6.20;85.30
62259;DHT22;48241;48.824;10.102;2023-02-21T05:50:31;6.10;86.20
62259;DHT22;48241;48.824;10.102;2023-02-21T05:52:58;5.70;89.70
62259;DHT22;48241;48.824;10.102;2023-02-21T05:55:24;6.00;86.80
62259;DHT22;48241;48.824;10.102;2023-02-21T05:57:50;6.20;85.70
62259;DHT22;48241;48.824;10.102;2023-02-21T06:00:16;6.20;86.00
62259;DHT22;48241;48.824;10.102;2023-02-21T06:02:42;6.00;88.70
62259;DHT22;48241;48.824;10.102;2023-02-21T06:05:08;6.00;87.30
62259;DHT22;48241;48.824;10.102;2023-02-21T06:07:35;5.90;88.30
62259;DHT22;48241;48.824;10.102;2023-02-21T06:10:00;6.10;87.40
62259;DHT22;48241;48.824;10.102;2023-02-21T06:12:26;6.00;85.20
62259;DHT22;48241;48.824;10.102;2023-02-21T06:14:51;5.90;85.60
62259;DHT22;48241;48.824;10.102;2023-02-21T06:17:17;6.10;85.80
62259;DHT22;48241;48.824;10.102;2023-02-21T06:19:42;6.10;88.00
62259;DHT22;48241;48.824;10.102;2023-02-21T06:22:08;6.20;88.10
62259;DHT22;48241;48.824;10.102;2023-02-21T06:24:33;6.00;87.30
62259;DHT22;48241;48.824;10.102;2023-02-21T06:26:59;6.00;87.70
62259;DHT22;48241;48.824;10.102;2023-02-21T06:29:24;5.70;88.20
62259;DHT22;48241;48.824;10.102;2023-02-21T06:31:56;5.70;89.70
62259;DHT22;48241;48.824;10.102;2023-02-21T06:34:22;5.90;86.70
62259;DHT22;48241;48.824;10.102;2023-02-21T06:36:51;5.90;86.20
62259;DHT22;48241;48.824;10.102;2023-02-21T06:39:17;5.90;86.90
62259;DHT22;48241;48.824;10.102;2023-02-21T06:41:42;6.10;87.60
62259;DHT22;48241;48.824;10.102;2023-02-21T06:44:08;6.10;85.80
62259;DHT22;48241;48.824;10.102;2023-02-21T06:46:33;5.90;87.50
62259;DHT22;48241;48.824;10.102;2023-02-21T06:49:01;6.10;86.60
62259;DHT22;48241;48.824;10.102;2023-02-21T06:51:26;6.10;88.90
62259;DHT22;48241;48.824;10.102;2023-02-21T06:53:55;6.30;87.80
62259;DHT22;48241;48.824;10.102;2023-02-21T06:56:21;6.40;85.80
62259;DHT22;48241;48.824;10.102;2023-02-21T06:58:47;6.60;84.30
62259;DHT22;48241;48.824;10.102;2023-02-21T07:01:13;6.60;83.70
62259;DHT22;48241;48.824;10.102;2023-02-21T07:03:40;6.80;83.30
62259;DHT22;48241;48.824;10.102;2023-02-21T07:06:07;6.80;83.20
62259;DHT22;48241;48.824;10.102;2023-02-21T07:08:33;6.90;84.80
62259;DHT22;48241;48.824;10.102;2023-02-21T07:10:59;7.00;83.60
62259;DHT22;48241;48.824;10.102;2023-02-21T07:13:24;7.00;81.40
62259;DHT22;48241;48.824;10.102;2023-02-21T07:15:50;6.80;81.60
62259;DHT22;48241;48.824;10.102;2023-02-21T07:18:15;6.90;80.80
62259;DHT22;48241;48.824;10.102;2023-02-21T07:20:41;7.10;80.00
62259;DHT22;48241;48.824;10.102;2023-02-21T07:23:06;7.20;80.60
62259;DHT22;48241;48.824;10.102;2023-02-21T07:25:32;7.00;83.20
62259;DHT22;48241;48.824;10.102;2023-02-21T07:27:57;7.10;82.70
62259;DHT22;48241;48.824;10.102;2023-02-21T07:30:23;7.30;81.30
62259;DHT22;48241;48.824;10.102;2023-02-21T07:32:48;7.40;79.30
62259;DHT22;48241;48.824;10.102;2023-02-21T07:35:14;7.00;82.30
62259;DHT22;48241;48.824;10.102;2023-02-21T07:37:40;6.90;85.80
62259;DHT22;48241;48.824;10.102;2023-02-21T07:40:06;7.00;85.70
62259;DHT22;48241;48.824;10.102;2023-02-21T07:42:32;7.10;84.60
62259;DHT22;48241;48.824;10.102;2023-02-21T07:44:58;7.00;84.10
62259;DHT22;48241;48.824;10.102;2023-02-21T07:47:24;7.10;82.90
62259;DHT22;48241;48.824;10.102;2023-02-21T07:49:50;7.10;83.00
62259;DHT22;48241;48.824;10.102;2023-02-21T07:52:18;7.20;81.70
62259;DHT22;48241;48.824;10.102;2023-02-21T07:54:44;7.00;80.70
62259;DHT22;48241;48.824;10.102;2023-02-21T07:57:10;7.20;83.80
62259;DHT22;48241;48.824;10.102;2023-02-21T07:59:36;7.20;85.20
62259;DHT22;48241;48.824;10.102;2023-02-21T08:02:01;7.10;84.20
62259;DHT22;48241;48.824;10.102;2023-02-21T08:04:27;7.30;85.20
62259;DHT22;48241;48.824;10.102;2023-02-21T08:06:58;7.50;82.90
62259;DHT22;48241;48.824;10.102;2023-02-21T08:09:23;7.60;82.60
62259;DHT22;48241;48.824;10.102;2023-02-21T08:11:49;7.50;83.20
62259;DHT22;48241;48.824;10.102;2023-02-21T08:14:14;7.70;81.90
62259;DHT22;48241;48.824;10.102;2023-02-21T08:16:40;7.80;83.40
62259;DHT22;48241;48.824;10.102;2023-02-21T08:19:05;7.90;81.90
62259;DHT22;48241;48.824;10.102;2023-02-21T08:21:32;7.90;82.20
62259;DHT22;48241;48.824;10.102;2023-02-21T08:23:57;7.80;82.40
62259;DHT22;48241;48.824;10.102;2023-02-21T08:26:23;7.90;80.70
62259;DHT22;48241;48.824;10.102;2023-02-21T08:28:49;8.20;79.50
62259;DHT22;48241;48.824;10.102;2023-02-21T08:31:20;8.60;78.50
62259;DHT22;48241;48.824;10.102;2023-02-21T08:33:45;8.90;77.00
62259;DHT22;48241;48.824;10.102;2023-02-21T08:36:11;9.40;75.40
62259;DHT22;48241;48.824;10.102;2023-02-21T08:38:37;9.80;75.50
62259;DHT22;48241;48.824;10.102;2023-02-21T08:41:07;10.20;72.90
62259;DHT22;48241;48.824;10.102;2023-02-21T08:43:37;10.60;72.00
62259;DHT22;48241;48.824;10.102;2023-02-21T08:46:06;10.40;72.40
62259;DHT22;48241;48.824;10.102;2023-02-21T08:48:33;11.10;71.80
62259;DHT22;48241;48.824;10.102;2023-02-21T08:50:59;11.40;68.40
62259;DHT22;48241;48.824;10.102;2023-02-21T08:53:24;11.60;67.90
62259;DHT22;48241;48.824;10.102;2023-02-21T08:55:53;11.70;66.50
62259;DHT22;48241;48.824;10.102;2023-02-21T08:58:18;12.00;66.00
62259;DHT22;48241;48.824;10.102;2023-02-21T09:00:50;12.20;66.40
62259;DHT22;48241;48.824;10.102;2023-02-21T09:03:16;12.50;66.00
62259;DHT22;48241;48.824;10.102;2023-02-21T09:05:44;13.00;65.50
62259;DHT22;48241;48.824;10.102;2023-02-21T09:08:13;14.00;62.60
62259;DHT22;48241;48.824;10.102;2023-02-21T09:10:39;14.90;60.10
62259;DHT22;48241;48.824;10.102;2023-02-21T09:13:11;16.30;56.50
62259;DHT22;48241;48.824;10.102;2023-02-21T09:15:37;17.40;54.00
62259;DHT22;48241;48.824;10.102;2023-02-21T09:18:03;17.80;53.20
62259;DHT22;48241;48.824;10.102;2023-02-21T09:20:28;18.80;50.60
62259;DHT22;48241;48.824;10.102;2023-02-21T09:22:54;19.40;49.30
62259;DHT22;48241;48.824;10.102;2023-02-21T09:25:22;20.10;47.50
62259;DHT22;48241;48.824;10.102;2023-02-21T09:27:49;20.50;46.60
62259;DHT22;48241;48.824;10.102;2023-02-21T09:30:20;21.10;45.70
62259;DHT22;48241;48.824;10.102;2023-02-21T09:32:49;21.70;44.00
62259;DHT22;48241;48.824;10.102;2023-02-21T09:35:15;21.90;42.40
62259;DHT22;48241;48.824;10.102;2023-02-21T09:37:42;21.90;41.50
62259;DHT22;48241;48.824;10.102;2023-02-21T09:43:14;22.20;40.50
62259;DHT22;48241;48.824;10.102;2023-02-21T09:45:40;21.80;40.80
62259;DHT22;48241;48.824;10.102;2023-02-21T09:48:17;22.40;40.90
62259;DHT22;48241;48.824;10.102;2023-02-21T09:50:52;22.60;41.50
62259;DHT22;48241;48.824;10.102;2023-02-21T09:53:22;22.90;41.50
62259;DHT22;48241;48.824;10.102;2023-02-21T09:56:07;23.60;40.20
62259;DHT22;48241;48.824;10.102;2023-02-21T09:58:42;23.80;38.20
62259;DHT22;48241;48.824;10.102;2023-02-21T10:06:49;22.20;38.70
62259;DHT22;48241;48.824;10.102;2023-02-21T10:09:43;21.00;40.90
62259;DHT22;48241;48.824;10.102;2023-02-21T10:18:32;18.40;44.60
62259;DHT22;48241;48.824;10.102;2023-02-21T10:21:01;17.40;46.70
62259;DHT22;48241;48.824;10.102;2023-02-21T10:23:49;17.20;48.50
62259;DHT22;48241;48.824;10.102;2023-02-21T10:26:27;16.60;48.60
62259;DHT22;48241;48.824;10.102;2023-02-21T10:28:55;16.50;50.20
62259;DHT22;48241;48.824;10.102;2023-02-21T10:31:36;16.30;51.40
62259;DHT22;48241;48.824;10.102;2023-02-21T10:34:06;15.90;50.30
62259;DHT22;48241;48.824;10.102;2023-02-21T10:36:33;15.40;51.10
62259;DHT22;48241;48.824;10.102;2023-02-21T10:39:16;15.30;53.40
62259;DHT22;48241;48.824;10.102;2023-02-21T10:41:43;15.10;52.10
62259;DHT22;48241;48.824;10.102;2023-02-21T10:44:24;15.00;52.80
62259;DHT22;48241;48.824;10.102;2023-02-21T10:47:01;14.90;54.40
62259;DHT22;48241;48.824;10.102;2023-02-21T10:49:37;15.00;54.40
62259;DHT22;48241;48.824;10.102;2023-02-21T10:52:16;14.80;53.70
62259;DHT22;48241;48.824;10.102;2023-02-21T10:55:09;15.00;52.40
62259;DHT22;48241;48.824;10.102;2023-02-21T10:57:40;15.00;53.20
62259;DHT22;48241;48.824;10.102;2023-02-21T11:00:07;14.70;52.70
62259;DHT22;48241;48.824;10.102;2023-02-21T11:02:39;14.80;53.90
62259;DHT22;48241;48.824;10.102;2023-02-21T11:05:20;14.80;53.70
62259;DHT22;48241;48.824;10.102;2023-02-21T11:08:02;14.80;54.90
62259;DHT22;48241;48.824;10.102;2023-02-21T11:10:40;14.80;54.50
62259;DHT22;48241;48.824;10.102;2023-02-21T11:13:14;14.90;55.20
62259;DHT22;48241;48.824;10.102;2023-02-21T11:15:43;14.60;55.60
62259;DHT22;48241;48.824;10.102;2023-02-21T11:20:38;14.60;54.90
62259;DHT22;48241;48.824;10.102;2023-02-21T11:23:04;14.80;54.90
62259;DHT22;48241;48.824;10.102;2023-02-21T11:25:41;15.00;54.70
62259;DHT22;48241;48.824;10.102;2023-02-21T11:33:27;14.80;54.50
62259;DHT22;48241;48.824;10.102;2023-02-21T11:36:08;14.90;54.10
62259;DHT22;48241;48.824;10.102;2023-02-21T11:38:39;15.00;54.60
62259;DHT22;48241;48.824;10.102;2023-02-21T11:41:26;15.10;54.50
62259;DHT22;48241;48.824;10.102;2023-02-21T11:43:53;15.00;55.40
62259;DHT22;48241;48.824;10.102;2023-02-21T11:46:43;15.20;53.50
62259;DHT22;48241;48.824;10.102;2023-02-21T11:51:58;15.30;52.90
62259;DHT22;48241;48.824;10.102;2023-02-21T11:54:27;15.40;53.10
62259;DHT22;48241;48.824;10.102;2023-02-21T11:59:31;15.30;53.80
62259;DHT22;48241;48.824;10.102;2023-02-21T12:07:59;15.30;52.30
62259;DHT22;48241;48.824;10.102;2023-02-21T12:15:50;15.50;54.20
62259;DHT22;48241;48.824;10.102;2023-02-21T12:31:55;15.80;54.90
62259;DHT22;48241;48.824;10.102;2023-02-21T12:37:24;15.80;56.30
62259;DHT22;48241;48.824;10.102;2023-02-21T12:46:05;16.20;53.10
62259;DHT22;48241;48.824;10.102;2023-02-21T12:51:15;16.20;54.30
62259;DHT22;48241;48.824;10.102;2023-02-21T12:53:52;16.40;54.70
62259;DHT22;48241;48.824;10.102;2023-02-21T12:56:29;16.30;53.30
62259;DHT22;48241;48.824;10.102;2023-02-21T12:59:13;16.30;55.90
62259;DHT22;48241;48.824;10.102;2023-02-21T13:01:49;16.00;54.70
62259;DHT22;48241;48.824;10.102;2023-02-21T13:07:31;16.20;54.80
62259;DHT22;48241;48.824;10.102;2023-02-21T13:10:21;16.40;55.10
62259;DHT22;48241;48.824;10.102;2023-02-21T13:13:10;16.50;54.50
62259;DHT22;48241;48.824;10.102;2023-02-21T13:15:40;16.50;54.40
62259;DHT22;48241;48.824;10.102;2023-02-21T13:18:17;16.50;53.40
62259;DHT22;48241;48.824;10.102;2023-02-21T13:23:49;16.70;54.60
62259;DHT22;48241;48.824;10.102;2023-02-21T13:29:37;16.00;57.60
62259;DHT22;48241;48.824;10.102;2023-02-21T13:32:13;16.10;57.70
62259;DHT22;48241;48.824;10.102;2023-02-21T13:34:44;16.10;57.50
62259;DHT22;48241;48.824;10.102;2023-02-21T13:37:21;16.20;58.10
62259;DHT22;48241;48.824;10.102;2023-02-21T13:39:54;16.00;57.70
62259;DHT22;48241;48.824;10.102;2023-02-21T13:42:26;16.00;56.80
62259;DHT22;48241;48.824;10.102;2023-02-21T13:50:53;16.20;56.90
62259;DHT22;48241;48.824;10.102;2023-02-21T13:53:26;16.20;57.30
62259;DHT22;48241;48.824;10.102;2023-02-21T13:58:37;16.40;56.90
62259;DHT22;48241;48.824;10.102;2023-02-21T14:01:40;16.10;58.10
62259;DHT22;48241;48.824;10.102;2023-02-21T14:07:16;15.90;59.50
62259;DHT22;48241;48.824;10.102;2023-02-21T14:09:45;16.10;59.80
62259;DHT22;48241;48.824;10.102;2023-02-21T14:12:11;15.80;59.40
62259;DHT22;48241;48.824;10.102;2023-02-21T14:14:40;15.70;60.20
62259;DHT22;48241;48.824;10.102;2023-02-21T14:17:09;15.70;61.10
62259;DHT22;48241;48.824;10.102;2023-02-21T14:19:41;15.80;61.10
62259;DHT22;48241;48.824;10.102;2023-02-21T14:22:14;15.60;61.10
62259;DHT22;48241;48.824;10.102;2023-02-21T14:24:43;15.70;61.50
62259;DHT22;48241;48.824;10.102;2023-02-21T14:29:40;15.60;61.90
62259;DHT22;48241;48.824;10.102;2023-02-21T14:39:46;15.60;61.70
62259;DHT22;48241;48.824;10.102;2023-02-21T14:45:22;15.20;63.80
62259;DHT22;48241;48.824;10.102;2023-02-21T14:50:53;15.00;63.80
62259;DHT22;48241;48.824;10.102;2023-02-21T15:09:43;14.30;67.60
62259;DHT22;48241;48.824;10.102;2023-02-21T15:12:15;14.20;67.70
62259;DHT22;48241;48.824;10.102;2023-02-21T15:14:50;14.30;68.00
62259;DHT22;48241;48.824;10.102;2023-02-21T15:17:21;14.20;68.10
62259;DHT22;48241;48.824;10.102;2023-02-21T15:20:04;14.20;68.60
62259;DHT22;48241;48.824;10.102;2023-02-21T15:22:31;14.10;68.80
62259;DHT22;48241;48.824;10.102;2023-02-21T15:27:57;14.00;69.20
62259;DHT22;48241;48.824;10.102;2023-02-21T15:30:28;13.90;69.50
62259;DHT22;48241;48.824;10.102;2023-02-21T15:35:30;13.90;69.60
62259;DHT22;48241;48.824;10.102;2023-02-21T15:37:57;13.80;70.50
62259;DHT22;48241;48.824;10.102;2023-02-21T15:40:25;13.90;70.50
62259;DHT22;48241;48.824;10.102;2023-02-21T15:42:52;13.40;72.00
62259;DHT22;48241;48.824;10.102;2023-02-21T15:45:27;13.40;72.20
62259;DHT22;48241;48.824;10.102;2023-02-21T15:47:55;13.30;72.30
62259;DHT22;48241;48.824;10.102;2023-02-21T15:50:36;13.20;72.70
62259;DHT22;48241;48.824;10.102;2023-02-21T15:53:24;12.90;73.80
62259;DHT22;48241;48.824;10.102;2023-02-21T15:55:53;12.90;73.70
62259;DHT22;48241;48.824;10.102;2023-02-21T15:58:29;12.80;74.60
62259;DHT22;48241;48.824;10.102;2023-02-21T16:01:09;12.50;76.30
62259;DHT22;48241;48.824;10.102;2023-02-21T16:03:44;12.50;75.60
62259;DHT22;48241;48.824;10.102;2023-02-21T16:06:29;12.40;76.00
62259;DHT22;48241;48.824;10.102;2023-02-21T16:09:21;12.10;78.40
62259;DHT22;48241;48.824;10.102;2023-02-21T16:14:45;11.90;79.00
62259;DHT22;48241;48.824;10.102;2023-02-21T16:19:39;11.90;79.30
62259;DHT22;48241;48.824;10.102;2023-02-21T16:24:49;12.10;78.90
62259;DHT22;48241;48.824;10.102;2023-02-21T16:27:16;11.80;80.00
62259;DHT22;48241;48.824;10.102;2023-02-21T16:29:48;11.80;81.10
62259;DHT22;48241;48.824;10.102;2023-02-21T16:32:20;11.60;81.20
62259;DHT22;48241;48.824;10.102;2023-02-21T16:34:46;11.70;81.10
62259;DHT22;48241;48.824;10.102;2023-02-21T16:37:13;11.80;79.80
62259;DHT22;48241;48.824;10.102;2023-02-21T16:39:42;12.00;79.50
62259;DHT22;48241;48.824;10.102;2023-02-21T16:42:08;11.70;80.50
62259;DHT22;48241;48.824;10.102;2023-02-21T16:44:33;11.60;81.00
62259;DHT22;48241;48.824;10.102;2023-02-21T16:46:59;11.60;80.90
62259;DHT22;48241;48.824;10.102;2023-02-21T16:49:25;11.80;80.40
62259;DHT22;48241;48.824;10.102;2023-02-21T16:51:50;11.70;80.00
62259;DHT22;48241;48.824;10.102;2023-02-21T16:54:19;11.70;79.80
62259;DHT22;48241;48.824;10.102;2023-02-21T16:56:46;11.70;80.20
62259;DHT22;48241;48.824;10.102;2023-02-21T16:59:17;11.70;79.80
62259;DHT22;48241;48.824;10.102;2023-02-21T17:01:44;11.60;80.30
62259;DHT22;48241;48.824;10.102;2023-02-21T17:04:28;11.40;80.80
62259;DHT22;48241;48.824;10.102;2023-02-21T17:07:02;11.30;81.00
62259;DHT22;48241;48.824;10.102;2023-02-21T17:09:29;11.30;81.00
62259;DHT22;48241;48.824;10.102;2023-02-21T17:11:58;11.40;81.50
62259;DHT22;48241;48.824;10.102;2023-02-21T17:14:25;11.20;81.80
62259;DHT22;48241;48.824;10.102;2023-02-21T17:16:50;11.20;82.00
62259;DHT22;48241;48.824;10.102;2023-02-21T17:19:20;11.20;82.00
62259;DHT22;48241;48.824;10.102;2023-02-21T17:21:46;11.00;82.30
62259;DHT22;48241;48.824;10.102;2023-02-21T17:24:13;11.00;82.80
62259;DHT22;48241;48.824;10.102;2023-02-21T17:26:39;10.90;83.30
62259;DHT22;48241;48.824;10.102;2023-02-21T17:29:06;10.70;84.70
62259;DHT22;48241;48.824;10.102;2023-02-21T17:31:32;10.60;84.30
62259;DHT22;48241;48.824;10.102;2023-02-21T17:33:57;10.70;84.30
62259;DHT22;48241;48.824;10.102;2023-02-21T17:36:25;10.80;84.00
62259;DHT22;48241;48.824;10.102;2023-02-21T17:38:51;10.70;83.90
62259;DHT22;48241;48.824;10.102;2023-02-21T17:41:18;10.70;84.10
62259;DHT22;48241;48.824;10.102;2023-02-21T17:43:44;10.80;83.90
62259;DHT22;48241;48.824;10.102;2023-02-21T17:46:14;10.70;84.10
62259;DHT22;48241;48.824;10.102;2023-02-21T17:48:40;10.60;84.30
62259;DHT22;48241;48.824;10.102;2023-02-21T17:51:07;10.50;84.90
62259;DHT22;48241;48.824;10.102;2023-02-21T17:53:32;10.50;84.80
62259;DHT22;48241;48.824;10.102;2023-02-21T17:55:59;10.10;86.10
62259;DHT22;48241;48.824;10.102;2023-02-21T17:58:26;10.10;86.60
62259;DHT22;48241;48.824;10.102;2023-02-21T18:00:52;10.20;86.40
62259;DHT22;48241;48.824;10.102;2023-02-21T18:03:23;10.30;85.60
62259;DHT22;48241;48.824;10.102;2023-02-21T18:05:49;10.60;84.90
62259;DHT22;48241;48.824;10.102;2023-02-21T18:08:18;10.20;85.20
62259;DHT22;48241;48.824;10.102;2023-02-21T18:10:44;10.30;85.00
62259;DHT22;48241;48.824;10.102;2023-02-21T18:13:14;10.40;84.40
62259;DHT22;48241;48.824;10.102;2023-02-21T18:15:39;10.30;84.20
62259;DHT22;48241;48.824;10.102;2023-02-21T18:18:05;10.20;83.70
62259;DHT22;48241;48.824;10.102;2023-02-21T18:20:32;9.60;87.90
62259;DHT22;48241;48.824;10.102;2023-02-21T18:22:57;9.60;88.20
62259;DHT22;48241;48.824;10.102;2023-02-21T18:25:23;9.40;88.40
62259;DHT22;48241;48.824;10.102;2023-02-21T18:27:49;9.30;89.30
62259;DHT22;48241;48.824;10.102;2023-02-21T18:30:16;9.00;89.30